Time;durP1;ratioP1;P1;durP2;ratioP2;P2;SDS_P1;SDS_P2;PMS_P1;PMS_P2;Temp;Humidity;BMP_temperature;BMP_pressure;BME280_temperature;BME280_humidity;BME280_pressure;Samples;Min_cycle;Max_cycle;Signal;HPM_P1;HPM_P2
2023/07/11 00:00:53;;;;;;;0.90;0.50;;;;;;;14.52;100.00;99752.73;109047;1256;72630;-49
2023/07/11 00:03:20;;;;;;;5.50;0.60;;;;;;;14.47;100.00;99749.96;105928;1257;60473;-47
2023/07/11 00:06:10;;;;;;;7.10;0.50;;;;;;;14.42;100.00;99750.89;104944;1254;60563;-45
2023/07/11 00:08:38;;;;;;;3.40;0.70;;;;;;;14.36;100.00;99752.61;105452;1254;73821;-48
2023/07/11 00:11:09;;;;;;;0.80;0.50;;;;;;;14.33;100.00;99751.91;104905;1253;68252;-46
2023/07/11 00:13:38;;;;;;;0.60;0.50;;;;;;;14.30;100.00;99749.00;105040;1254;72660;-46
2023/07/11 00:16:08;;;;;;;3.80;0.50;;;;;;;14.27;100.00;99751.08;105450;1254;61686;-45
2023/07/11 00:18:36;;;;;;;2.70;0.70;;;;;;;14.25;100.00;99752.27;104985;1254;59349;-46
2023/07/11 00:21:04;;;;;;;1.10;0.50;;;;;;;14.21;100.00;99752.67;105001;1254;73826;-46
2023/07/11 00:23:31;;;;;;;2.60;0.60;;;;;;;14.18;100.00;99755.81;105479;1254;67512;-47
2023/07/11 00:25:59;;;;;;;2.80;0.90;;;;;;;14.16;100.00;99757.14;104941;1254;73132;-48
2023/07/11 00:28:26;;;;;;;4.00;0.70;;;;;;;14.15;100.00;99754.72;104926;1254;60399;-47
2023/07/11 00:30:54;;;;;;;4.80;0.70;;;;;;;14.14;100.00;99750.77;105218;1253;60568;-47
2023/07/11 00:33:21;;;;;;;1.40;0.60;;;;;;;14.15;100.00;99753.80;104989;1254;73793;-48
2023/07/11 00:35:51;;;;;;;2.00;1.10;;;;;;;14.15;100.00;99751.82;104847;1254;67530;-47
2023/07/11 00:38:19;;;;;;;0.50;0.50;;;;;;;14.14;100.00;99751.52;104903;1258;71428;-47
2023/07/11 00:40:48;;;;;;;2.20;0.60;;;;;;;14.14;100.00;99748.98;104944;1255;60955;-48
2023/07/11 00:43:16;;;;;;;3.40;0.50;;;;;;;14.14;100.00;99750.63;105062;1259;60388;-47
2023/07/11 00:46:06;;;;;;;0.60;0.40;;;;;;;14.12;100.00;99744.30;104640;1256;73881;-48
2023/07/11 00:51:14;;;;;;;0.80;0.40;;;;;;;14.11;100.00;99748.64;101750;1292;601058;-48
2023/07/11 00:53:42;;;;;;;3.90;0.50;;;;;;;14.08;100.00;99749.02;104047;1270;61592;-45
2023/07/11 00:56:11;;;;;;;2.40;0.60;;;;;;;14.07;100.00;99750.71;104242;1267;59993;-47
2023/07/11 00:58:39;;;;;;;1.10;0.70;;;;;;;14.03;100.00;99747.52;104198;1269;72376;-45
2023/07/11 01:01:06;;;;;;;0.60;0.60;;;;;;;13.98;100.00;99741.86;104597;1272;66109;-49
2023/07/11 01:03:34;;;;;;;0.70;0.50;;;;;;;13.95;100.00;99741.34;104169;1267;72669;-46
2023/07/11 01:06:02;;;;;;;0.70;0.60;;;;;;;13.94;100.00;99739.79;104560;1260;188031;-46
2023/07/11 01:08:29;;;;;;;3.10;0.60;;;;;;;13.93;100.00;99739.14;105546;1260;60093;-47
2023/07/11 01:10:58;;;;;;;1.80;0.60;;;;;;;13.88;100.00;99735.42;104793;1260;72757;-47
2023/07/11 01:13:26;;;;;;;1.40;0.60;;;;;;;13.83;100.00;99736.32;104745;1260;68391;-46
2023/07/11 01:15:54;;;;;;;1.00;0.60;;;;;;;13.77;100.00;99738.54;104689;1260;73563;-46
2023/07/11 01:18:21;;;;;;;0.90;0.40;;;;;;;13.70;100.00;99735.15;105079;1260;61631;-46
2023/07/11 01:20:49;;;;;;;0.80;0.50;;;;;;;13.65;100.00;99732.56;104282;1257;59962;-47
2023/07/11 01:23:16;;;;;;;1.60;0.60;;;;;;;13.64;100.00;99736.75;104587;1258;73687;-47
2023/07/11 01:25:43;;;;;;;0.90;0.50;;;;;;;13.66;100.00;99736.87;104724;1257;67547;-48
2023/07/11 01:28:12;;;;;;;2.20;0.50;;;;;;;13.65;100.00;99738.16;104814;1262;72766;-48
2023/07/11 01:30:40;;;;;;;0.80;0.50;;;;;;;13.66;100.00;99733.24;104900;1257;61671;-48
2023/07/11 01:33:07;;;;;;;0.70;0.70;;;;;;;13.67;100.00;99734.45;104796;1260;59859;-48
2023/07/11 01:35:36;;;;;;;0.60;0.60;;;;;;;13.69;100.00;99730.39;105103;1257;73052;-47
2023/07/11 01:38:03;;;;;;;2.40;0.50;;;;;;;13.71;100.00;99731.69;105253;1261;67563;-48
2023/07/11 01:40:30;;;;;;;1.30;0.50;;;;;;;13.69;100.00;99730.16;104699;1257;71379;-49
2023/07/11 01:42:58;;;;;;;0.70;0.50;;;;;;;13.68;100.00;99725.91;104647;1257;63901;-46
2023/07/11 01:45:25;;;;;;;4.30;0.60;;;;;;;13.71;100.00;99726.10;104886;1260;59638;-46
2023/07/11 01:47:54;;;;;;;0.70;0.50;;;;;;;13.72;100.00;99724.00;104750;1260;73062;-47
2023/07/11 01:50:21;;;;;;;2.30;0.60;;;;;;;13.73;100.00;99723.95;104613;1257;66491;-48
2023/07/11 01:52:49;;;;;;;1.30;0.50;;;;;;;13.74;100.00;99721.56;104770;1263;72610;-49
2023/07/11 01:55:16;;;;;;;0.80;0.40;;;;;;;13.76;100.00;99722.88;104988;1257;60745;-50
2023/07/11 01:57:44;;;;;;;0.80;0.50;;;;;;;13.78;100.00;99722.39;105495;1257;60038;-51
2023/07/11 02:00:13;;;;;;;0.70;0.60;;;;;;;13.80;100.00;99719.77;104984;1260;71801;-49
2023/07/11 02:02:50;;;;;;;1.50;0.60;;;;;;;13.82;100.00;99722.14;106266;1256;66987;-50
2023/07/11 02:05:19;;;;;;;0.60;0.60;;;;;;;13.83;100.00;99717.75;105155;1257;72916;-47
2023/07/11 02:07:47;;;;;;;0.60;0.50;;;;;;;13.82;100.00;99719.23;104895;1257;59829;-47
2023/07/11 02:10:14;;;;;;;0.90;0.70;;;;;;;13.80;100.00;99723.33;105064;1258;60159;-48
2023/07/11 02:12:42;;;;;;;4.60;0.80;;;;;;;13.78;100.00;99721.31;105364;1259;73097;-47
2023/07/11 02:15:11;;;;;;;4.30;0.50;;;;;;;13.75;100.00;99723.33;105041;1254;67713;-48
2023/07/11 02:17:39;;;;;;;3.00;0.60;;;;;;;13.72;100.00;99720.26;105252;1260;70415;-48
2023/07/11 02:20:09;;;;;;;0.50;0.50;;;;;;;13.71;100.00;99720.14;107385;1254;61591;-48
2023/07/11 02:22:39;;;;;;;0.80;0.50;;;;;;;13.69;100.00;99725.33;105070;1258;59554;-49
2023/07/11 02:25:07;;;;;;;0.60;0.60;;;;;;;13.70;100.00;99723.40;105064;1254;71812;-47
2023/07/11 02:27:34;;;;;;;4.10;0.60;;;;;;;13.71;100.00;99730.02;108459;1254;66743;-48
2023/07/11 02:30:02;;;;;;;2.70;0.60;;;;;;;13.70;100.00;99732.45;105005;1259;71778;-47
2023/07/11 02:32:29;;;;;;;0.90;0.60;;;;;;;13.69;100.00;99732.00;104974;1254;60031;-48
2023/07/11 02:34:57;;;;;;;2.70;0.90;;;;;;;13.71;100.00;99735.65;105067;1259;59647;-48
2023/07/11 02:37:24;;;;;;;0.80;0.70;;;;;;;13.73;100.00;99733.70;109027;1254;74389;-49
2023/07/11 02:39:51;;;;;;;1.10;0.50;;;;;;;13.76;100.00;99732.24;109124;1253;67558;-48
2023/07/11 02:42:19;;;;;;;1.80;0.60;;;;;;;13.76;100.00;99725.27;109052;1254;72496;-48
2023/07/11 02:44:46;;;;;;;1.50;0.80;;;;;;;13.75;100.00;99726.03;108969;1254;60465;-49
2023/07/11 02:47:13;;;;;;;0.60;0.60;;;;;;;13.75;100.00;99720.77;109167;1254;60515;-49
2023/07/11 02:49:41;;;;;;;1.40;0.60;;;;;;;13.77;100.00;99723.89;109070;1254;71733;-49
2023/07/11 02:52:10;;;;;;;1.60;0.50;;;;;;;13.80;100.00;99725.85;109033;1256;66436;-49
2023/07/11 02:54:38;;;;;;;1.10;0.60;;;;;;;13.84;100.00;99722.40;109089;1254;71340;-49
2023/07/11 02:57:09;;;;;;;2.80;0.50;;;;;;;13.88;100.00;99721.52;109052;1253;60502;-49
2023/07/11 02:59:37;;;;;;;2.30;0.40;;;;;;;13.92;100.00;99716.67;109023;1254;58952;-50
2023/07/11 03:02:05;;;;;;;1.60;0.60;;;;;;;13.95;100.00;99713.39;108981;1254;73244;-49
2023/07/11 03:04:32;;;;;;;1.10;0.50;;;;;;;13.99;100.00;99712.58;108999;1254;68100;-49
2023/07/11 03:06:59;;;;;;;0.90;0.60;;;;;;;14.03;100.00;99714.34;109110;1254;72628;-48
2023/07/11 03:09:27;;;;;;;0.90;0.50;;;;;;;14.08;100.00;99715.28;109100;1254;61652;-49
2023/07/11 03:11:54;;;;;;;2.50;0.60;;;;;;;14.12;100.00;99712.16;109068;1256;60003;-49
2023/07/11 03:14:22;;;;;;;1.30;0.60;;;;;;;14.15;100.00;99712.09;106472;1255;72850;-49
2023/07/11 03:16:52;;;;;;;0.80;0.60;;;;;;;14.20;100.00;99714.48;104987;1254;66380;-49
2023/07/11 03:19:20;;;;;;;1.80;0.60;;;;;;;14.25;100.00;99721.04;104951;1257;71742;-47
2023/07/11 03:21:48;;;;;;;0.90;0.70;;;;;;;14.30;100.00;99723.23;104918;1259;60411;-47
2023/07/11 03:24:15;;;;;;;1.30;0.70;;;;;;;14.35;100.00;99718.02;105287;1254;59682;-47
2023/07/11 03:26:46;;;;;;;1.10;0.60;;;;;;;14.41;100.00;99714.09;105429;1254;73460;-47
2023/07/11 03:29:14;;;;;;;1.00;0.60;;;;;;;14.46;100.00;99713.09;104945;1256;66359;-48
2023/07/11 03:31:42;;;;;;;1.80;0.70;;;;;;;14.49;100.00;99711.60;104892;1255;71460;-46
2023/07/11 03:34:09;;;;;;;0.70;0.70;;;;;;;14.51;100.00;99702.59;104858;1253;60686;-48
2023/07/11 03:36:37;;;;;;;4.10;0.70;;;;;;;14.54;100.00;99700.27;104842;1254;59976;-48
2023/07/11 03:39:04;;;;;;;0.70;0.60;;;;;;;14.55;100.00;99696.88;104906;1254;71975;-47
2023/07/11 03:41:32;;;;;;;0.90;0.80;;;;;;;14.58;100.00;99697.98;104965;1259;66363;-47
2023/07/11 03:44:00;;;;;;;2.60;0.60;;;;;;;14.59;100.00;99704.60;104876;1258;71208;-47
2023/07/11 03:46:27;;;;;;;1.10;0.80;;;;;;;14.60;100.00;99703.85;105432;1254;60776;-47
2023/07/11 03:48:58;;;;;;;0.80;0.80;;;;;;;14.63;100.00;99695.30;105596;1259;59758;-48
2023/07/11 03:51:25;;;;;;;0.80;0.70;;;;;;;14.68;100.00;99681.78;104879;1257;71845;-46
2023/07/11 03:53:52;;;;;;;1.30;0.80;;;;;;;14.74;100.00;99674.66;104968;1257;66465;-47
2023/07/11 03:56:20;;;;;;;0.90;0.70;;;;;;;14.81;100.00;99680.38;104908;1254;72657;-48
2023/07/11 03:58:47;;;;;;;3.40;0.80;;;;;;;14.83;100.00;99681.86;104892;1259;61474;-47
2023/07/11 04:01:14;;;;;;;1.90;0.60;;;;;;;14.84;100.00;99685.04;105029;1258;60245;-48
2023/07/11 04:03:43;;;;;;;2.20;0.70;;;;;;;14.88;100.00;99690.95;106135;1259;71007;-47
2023/07/11 04:06:11;;;;;;;0.80;0.70;;;;;;;14.94;100.00;99693.08;105246;1254;67583;-48
2023/07/11 04:08:39;;;;;;;1.20;0.70;;;;;;;15.00;100.00;99700.62;105156;1259;71385;-48
2023/07/11 04:11:07;;;;;;;2.50;0.70;;;;;;;15.05;100.00;99703.11;104906;1257;61624;-48
2023/07/11 04:13:34;;;;;;;2.80;1.10;;;;;;;15.12;100.00;99705.20;105026;1259;60090;-47
2023/07/11 04:16:01;;;;;;;1.80;0.90;;;;;;;15.20;100.00;99708.63;105303;1253;73447;-47
2023/07/11 04:18:29;;;;;;;1.50;0.80;;;;;;;15.28;100.00;99711.15;105347;1259;67885;-47
2023/07/11 04:20:56;;;;;;;2.40;0.70;;;;;;;15.35;100.00;99716.86;104993;1258;72260;-48
2023/07/11 04:23:24;;;;;;;2.90;0.80;;;;;;;15.40;100.00;99717.94;104987;1253;59974;-47
2023/07/11 04:25:52;;;;;;;2.00;1.10;;;;;;;15.44;100.00;99711.12;104964;1258;59949;-48
2023/07/11 04:28:20;;;;;;;1.30;0.70;;;;;;;15.49;100.00;99713.29;105043;1260;72923;-48
2023/07/11 04:30:47;;;;;;;1.40;0.70;;;;;;;15.55;100.00;99712.04;105050;1254;65453;-48
2023/07/11 04:33:15;;;;;;;1.50;0.80;;;;;;;15.62;100.00;99710.65;105081;1259;71775;-49
2023/07/11 04:35:45;;;;;;;1.40;0.80;;;;;;;15.66;100.00;99713.02;104949;1259;61694;-50
2023/07/11 04:38:13;;;;;;;2.20;1.10;;;;;;;15.70;100.00;99709.00;105021;1260;60221;-49
2023/07/11 04:40:40;;;;;;;0.80;0.80;;;;;;;15.74;100.00;99707.44;105129;1260;73045;-50
2023/07/11 04:43:08;;;;;;;0.60;0.60;;;;;;;15.79;100.00;99702.75;105003;1259;68448;-48
2023/07/11 04:45:35;;;;;;;2.60;0.70;;;;;;;15.85;100.00;99699.75;105013;1260;71397;-49
2023/07/11 04:48:02;;;;;;;4.60;0.80;;;;;;;15.93;100.00;99699.97;104986;1263;60361;-48
2023/07/11 04:50:30;;;;;;;0.80;0.70;;;;;;;15.99;100.00;99696.41;104926;1258;59625;-48
2023/07/11 04:52:57;;;;;;;1.20;0.80;;;;;;;16.06;100.00;99693.58;104941;1254;73048;-48
2023/07/11 04:55:24;;;;;;;0.90;0.80;;;;;;;16.12;100.00;99688.84;104912;1259;66630;-50
2023/07/11 04:57:52;;;;;;;2.60;0.80;;;;;;;16.13;100.00;99691.09;104957;1260;72804;-49
2023/07/11 05:00:19;;;;;;;2.10;0.90;;;;;;;16.15;100.00;99689.30;104903;1254;60588;-49
2023/07/11 05:02:47;;;;;;;1.50;0.70;;;;;;;16.19;100.00;99690.23;104977;1259;60357;-48
2023/07/11 05:05:15;;;;;;;3.30;0.80;;;;;;;16.25;100.00;99687.08;104880;1254;73813;-48
2023/07/11 05:07:42;;;;;;;2.20;0.80;;;;;;;16.27;100.00;99682.40;105014;1260;67539;-49
2023/07/11 05:10:09;;;;;;;1.60;0.90;;;;;;;16.29;100.00;99681.77;104956;1258;72144;-47
2023/07/11 05:12:36;;;;;;;1.00;0.70;;;;;;;16.30;100.00;99683.71;104979;1260;62172;-47
2023/07/11 05:15:04;;;;;;;3.60;0.70;;;;;;;16.35;100.00;99683.71;105024;1259;60367;-48
2023/07/11 05:17:32;;;;;;;2.30;0.80;;;;;;;16.43;100.00;99687.08;105591;1254;73763;-47
2023/07/11 05:19:59;;;;;;;1.20;0.70;;;;;;;16.50;100.00;99683.44;104870;1260;66304;-49
2023/07/11 05:22:27;;;;;;;0.70;0.70;;;;;;;16.61;100.00;99682.34;104877;1254;72645;-49
2023/07/11 05:24:54;;;;;;;1.50;0.90;;;;;;;16.70;100.00;99679.27;104926;1259;60527;-48
2023/07/11 05:27:21;;;;;;;3.00;0.80;;;;;;;16.78;100.00;99676.33;104935;1254;60488;-48
2023/07/11 05:29:49;;;;;;;2.60;0.70;;;;;;;16.86;100.00;99675.05;104815;1268;74285;-49
2023/07/11 05:32:16;;;;;;;0.90;0.80;;;;;;;16.93;100.00;99673.73;105033;1259;67884;-48
2023/07/11 05:34:43;;;;;;;3.20;0.70;;;;;;;17.01;100.00;99673.64;104995;1254;71495;-48
2023/07/11 05:37:11;;;;;;;3.70;0.70;;;;;;;17.09;100.00;99665.97;104969;1260;60558;-49
2023/07/11 05:39:38;;;;;;;0.70;0.70;;;;;;;17.18;100.00;99661.66;104922;1258;60444;-48
2023/07/11 05:42:06;;;;;;;2.40;0.90;;;;;;;17.26;100.00;99657.62;105012;1254;73770;-47
2023/07/11 05:44:33;;;;;;;1.80;0.60;;;;;;;17.34;100.00;99653.66;104822;1254;67113;-49
2023/07/11 05:47:00;;;;;;;0.70;0.60;;;;;;;17.42;100.00;99654.59;105037;1258;72547;-49
2023/07/11 05:49:27;;;;;;;0.90;0.90;;;;;;;17.48;100.00;99654.83;104854;1253;61849;-48
2023/07/11 05:51:55;;;;;;;1.50;0.90;;;;;;;17.52;100.00;99650.67;104974;1259;60520;-48
2023/07/11 05:54:22;;;;;;;1.30;0.60;;;;;;;17.53;100.00;99645.55;104977;1254;74325;-49
2023/07/11 05:56:49;;;;;;;2.10;0.60;;;;;;;17.54;100.00;99648.49;104973;1260;66294;-47
2023/07/11 05:59:18;;;;;;;0.70;0.60;;;;;;;17.58;100.00;99645.30;104908;1254;73239;-48
2023/07/11 06:01:45;;;;;;;1.80;0.60;;;;;;;17.64;100.00;99643.04;109061;1259;61660;-48
2023/07/11 06:04:15;;;;;;;0.50;0.50;;;;;;;17.70;100.00;99636.63;108465;1254;59955;-47
2023/07/11 06:06:42;;;;;;;0.60;0.50;;;;;;;17.77;100.00;99637.82;109112;1254;73817;-48
2023/07/11 06:09:20;;;;;;;0.70;0.60;;;;;;;17.87;100.00;99638.52;108860;1258;67742;-50
2023/07/11 06:11:48;;;;;;;1.20;0.60;;;;;;;17.96;100.00;99636.44;109073;1254;72411;-49
2023/07/11 06:14:16;;;;;;;0.50;0.50;;;;;;;18.04;100.00;99635.11;109092;1254;60028;-50
2023/07/11 06:16:45;;;;;;;0.50;0.50;;;;;;;18.10;100.00;99628.27;109064;1259;58212;-50
2023/07/11 06:19:16;;;;;;;0.90;0.50;;;;;;;18.16;100.00;99630.30;109010;1254;72603;-52
2023/07/11 06:21:44;;;;;;;4.50;0.50;;;;;;;18.20;100.00;99628.23;109094;1255;67589;-50
2023/07/11 06:24:12;;;;;;;2.30;0.60;;;;;;;18.23;100.00;99618.32;108163;1258;73124;-48
2023/07/11 06:26:40;;;;;;;0.50;0.50;;;;;;;18.27;100.00;99613.94;105320;1255;61864;-49
2023/07/11 06:29:08;;;;;;;3.50;0.50;;;;;;;18.34;100.00;99614.13;105028;1254;60518;-50
2023/07/11 06:31:35;;;;;;;2.50;0.50;;;;;;;18.38;100.00;99611.96;104867;1254;73847;-48
2023/07/11 06:34:03;;;;;;;1.30;0.40;;;;;;;18.43;100.00;99610.63;105270;1259;66546;-48
2023/07/11 06:36:30;;;;;;;1.30;0.60;;;;;;;18.51;100.00;99610.16;104856;1259;71416;-48
2023/07/11 06:38:58;;;;;;;3.00;0.40;;;;;;;18.59;100.00;99606.99;104845;1254;60573;-50
2023/07/11 06:41:26;;;;;;;0.70;0.50;;;;;;;18.67;100.00;99608.27;104913;1254;60546;-50
2023/07/11 06:43:54;;;;;;;2.20;0.40;;;;;;;18.74;100.00;99607.86;104836;1256;72731;-51
2023/07/11 06:46:22;;;;;;;0.80;0.40;;;;;;;18.77;100.00;99606.67;104954;1256;65967;-50
2023/07/11 06:48:49;;;;;;;0.90;0.40;;;;;;;18.81;100.00;99603.28;106017;1259;71632;-50
2023/07/11 06:51:17;;;;;;;0.50;0.50;;;;;;;18.85;100.00;99597.70;105007;1254;61582;-50
2023/07/11 06:53:44;;;;;;;0.70;0.50;;;;;;;18.88;100.00;99595.17;105004;1259;61817;-49
2023/07/11 06:56:11;;;;;;;3.60;0.50;;;;;;;18.95;100.00;99592.24;104715;1260;72573;-50
2023/07/11 06:58:39;;;;;;;2.40;0.40;;;;;;;19.03;100.00;99588.84;104938;1260;67804;-50
2023/07/11 07:01:06;;;;;;;1.20;0.50;;;;;;;19.09;100.00;99589.07;104922;1254;72287;-50
2023/07/11 07:03:45;;;;;;;0.60;0.40;;;;;;;19.11;100.00;99586.49;105184;1254;60581;-51
2023/07/11 07:06:13;;;;;;;0.30;0.30;;;;;;;19.13;100.00;99582.00;105906;1259;60475;-49
2023/07/11 07:08:41;;;;;;;1.20;0.40;;;;;;;19.18;100.00;99580.43;105112;1254;72639;-48
2023/07/11 07:11:09;;;;;;;0.50;0.30;;;;;;;19.25;100.00;99576.41;105604;1254;68346;-48
2023/07/11 07:13:37;;;;;;;0.80;0.30;;;;;;;19.33;100.00;99570.23;105137;1260;71393;-49
2023/07/11 07:16:15;;;;;;;0.40;0.40;;;;;;;19.44;100.00;99573.98;105103;1256;60423;-49
2023/07/11 07:18:43;;;;;;;1.00;0.50;;;;;;;19.57;100.00;99571.38;104949;1259;60691;-48
2023/07/11 07:21:10;;;;;;;3.50;0.50;;;;;;;19.69;100.00;99566.02;105157;1254;73808;-50
2023/07/11 07:23:38;;;;;;;0.60;0.50;;;;;;;19.78;100.00;99560.47;105052;1254;68164;-51
2023/07/11 07:26:05;;;;;;;0.40;0.40;;;;;;;19.84;100.00;99560.29;105040;1259;71909;-50
2023/07/11 07:28:34;;;;;;;0.40;0.40;;;;;;;19.88;100.00;99564.09;104997;1254;61043;-50
2023/07/11 07:31:02;;;;;;;0.60;0.50;;;;;;;19.89;100.00;99564.00;105308;1259;60555;-50
2023/07/11 07:33:30;;;;;;;1.40;0.40;;;;;;;19.84;100.00;99558.80;105461;1254;72644;-49
2023/07/11 07:36:03;;;;;;;0.90;0.40;;;;;;;19.79;100.00;99555.42;105041;1256;66774;-50
2023/07/11 07:38:31;;;;;;;2.50;0.50;;;;;;;19.78;100.00;99550.65;104978;1260;71496;-49
2023/07/11 07:41:00;;;;;;;1.10;0.50;;;;;;;19.82;100.00;99551.91;104915;1256;62192;-48
2023/07/11 07:43:29;;;;;;;2.70;0.40;;;;;;;19.88;100.00;99549.67;105233;1254;60372;-50
2023/07/11 07:45:58;;;;;;;0.80;0.40;;;;;;;19.92;100.00;99547.09;104968;1259;74357;-51
2023/07/11 07:48:25;;;;;;;0.70;0.40;;;;;;;19.95;100.00;99547.02;104917;1257;66148;-49
2023/07/11 07:51:03;;;;;;;1.10;0.50;;;;;;;19.95;100.00;99547.08;104671;1261;71415;-49
2023/07/11 07:53:31;;;;;;;3.20;0.50;;;;;;;19.95;100.00;99545.05;105628;1254;61698;-50
2023/07/11 07:56:19;;;;;;;1.70;0.50;;;;;;;19.96;100.00;99544.80;104858;1254;60594;-50
2023/07/11 07:58:47;;;;;;;1.50;0.50;;;;;;;19.96;100.00;99544.97;105668;1260;73782;-50
2023/07/11 08:01:16;;;;;;;3.90;0.50;;;;;;;19.98;100.00;99546.64;104841;1256;67273;-51
2023/07/11 08:03:44;;;;;;;0.60;0.50;;;;;;;20.01;100.00;99544.25;104855;1254;71961;-50
2023/07/11 08:06:12;;;;;;;1.60;0.50;;;;;;;20.07;100.00;99541.06;105444;1260;60508;-49
2023/07/11 08:08:44;;;;;;;1.20;0.40;;;;;;;20.15;100.00;99536.88;105298;1254;60587;-51
2023/07/11 08:11:12;;;;;;;1.90;0.40;;;;;;;20.25;100.00;99538.08;104862;1254;74625;-49
2023/07/11 08:13:40;;;;;;;1.40;0.40;;;;;;;20.30;100.00;99538.61;104828;1259;67586;-51
2023/07/11 08:16:25;;;;;;;1.60;0.40;;;;;;;20.27;100.00;99541.91;105152;1256;70602;-50
2023/07/11 08:19:04;;;;;;;0.80;0.40;;;;;;;20.23;100.00;99538.13;104977;1258;60503;-49
2023/07/11 08:21:35;;;;;;;1.20;0.50;;;;;;;20.15;100.00;99539.60;105029;1259;60498;-49
2023/07/11 08:24:03;;;;;;;0.60;0.40;;;;;;;20.07;100.00;99541.04;105737;1257;73057;-49
2023/07/11 08:26:30;;;;;;;0.80;0.40;;;;;;;19.99;100.00;99535.54;105024;1259;65574;-49
2023/07/11 08:28:59;;;;;;;1.00;0.40;;;;;;;19.99;100.00;99527.05;105055;1254;71359;-49
2023/07/11 08:31:33;;;;;;;1.60;0.30;;;;;;;20.07;100.00;99524.11;105219;1254;60596;-49
2023/07/11 08:34:01;;;;;;;0.40;0.40;;;;;;;20.18;100.00;99516.21;104969;1260;60564;-50
2023/07/11 08:36:28;;;;;;;0.40;0.30;;;;;;;20.27;100.00;99514.81;104956;1253;73212;-51
2023/07/11 08:38:55;;;;;;;1.70;0.40;;;;;;;20.34;100.00;99508.85;104965;1254;66324;-50
2023/07/11 08:41:40;;;;;;;0.40;0.40;;;;;;;20.42;100.00;99506.66;105011;1254;72657;-49
2023/07/11 08:44:53;;;;;;;2.40;0.40;;;;;;;20.54;100.00;99510.34;104912;1257;60662;-49
2023/07/11 08:47:28;;;;;;;0.40;0.30;;;;;;;20.68;100.00;99503.35;104678;1254;60584;-48
2023/07/11 08:50:08;;;;;;;0.30;0.30;;;;;;;20.74;100.00;99500.18;105231;1257;73787;-49
2023/07/11 08:52:35;;;;;;;0.40;0.40;;;;;;;20.81;100.00;99497.36;109059;1254;71376;-50
2023/07/11 08:55:08;;;;;;;1.70;0.40;;;;;;;20.84;100.00;99497.84;109135;1254;73719;-50
2023/07/11 08:57:36;;;;;;;2.00;0.40;;;;;;;20.77;100.00;99497.33;109050;1254;58746;-51
2023/07/11 09:00:12;;;;;;;0.30;0.30;;;;;;;20.75;100.00;99497.70;109070;1254;59147;-50
2023/07/11 09:02:43;;;;;;;0.30;0.30;;;;;;;20.77;100.00;99497.50;108881;1258;72570;-50
2023/07/11 09:05:13;;;;;;;0.40;0.30;;;;;;;20.76;100.00;99498.88;109126;1257;66298;-49
2023/07/11 09:07:42;;;;;;;0.70;0.40;;;;;;;20.68;100.00;99493.81;108937;1254;72770;-51
2023/07/11 09:10:29;;;;;;;0.60;0.30;;;;;;;20.67;100.00;99493.45;109084;1254;58913;-50
2023/07/11 09:13:20;;;;;;;0.40;0.30;;;;;;;20.69;100.00;99491.53;109086;1254;59863;-50
2023/07/11 09:15:52;;;;;;;0.40;0.30;;;;;;;20.70;100.00;99492.89;109129;1254;73771;-50
2023/07/11 09:18:49;;;;;;;0.30;0.30;;;;;;;20.71;100.00;99493.03;108865;1254;67576;-51
2023/07/11 09:21:26;;;;;;;1.30;0.30;;;;;;;20.72;100.00;99485.27;109110;1254;70482;-51
2023/07/11 09:23:58;;;;;;;2.60;0.30;;;;;;;20.80;100.00;99482.48;108912;1254;58833;-50
2023/07/11 09:26:47;;;;;;;0.30;0.30;;;;;;;20.90;100.00;99485.34;108966;1254;59430;-51
2023/07/11 09:29:15;;;;;;;0.30;0.30;;;;;;;20.99;100.00;99484.92;107068;1258;72341;-49
2023/07/11 09:32:03;;;;;;;0.30;0.30;;;;;;;21.05;100.00;99480.10;104814;1257;67512;-49
2023/07/11 09:34:31;;;;;;;0.30;0.30;;;;;;;21.08;100.00;99480.19;104881;1255;71105;-50
2023/07/11 09:36:58;;;;;;;2.40;0.40;;;;;;;21.08;100.00;99483.13;104825;1257;60552;-49
2023/07/11 09:39:44;;;;;;;0.40;0.30;;;;;;;21.03;100.00;99482.23;106067;1254;60472;-48
2023/07/11 09:42:39;;;;;;;1.30;0.30;;;;;;;20.96;100.00;99481.33;104998;1254;71802;-50
2023/07/11 09:45:10;;;;;;;;;;;;;;;20.92;100.00;99486.45;104786;1254;67586;-49
2023/07/11 09:47:39;;;;;;;0.20;0.20;;;;;;;20.88;100.00;99485.55;105076;1258;73177;-47
2023/07/11 09:50:28;;;;;;;0.80;0.30;;;;;;;20.82;100.00;99482.33;105400;1255;62297;-48
2023/07/11 09:53:17;;;;;;;0.30;0.30;;;;;;;20.81;100.00;99475.83;104936;1254;60431;-49
2023/07/11 09:55:44;;;;;;;5.10;0.40;;;;;;;20.84;100.00;99473.19;104946;1254;71655;-47
2023/07/11 09:58:16;;;;;;;0.40;0.30;;;;;;;20.88;100.00;99473.77;105009;1259;67579;-47
2023/07/11 10:00:51;;;;;;;0.40;0.20;;;;;;;20.87;100.00;99477.48;105014;1260;72671;-49
2023/07/11 10:03:23;;;;;;;2.00;0.40;;;;;;;20.88;100.00;99473.02;104963;1254;60556;-50
2023/07/11 10:05:52;;;;;;;1.30;0.30;;;;;;;20.90;100.00;99476.85;104920;1256;60632;-49
2023/07/11 10:08:40;;;;;;;3.40;0.30;;;;;;;20.90;100.00;99480.85;105171;1254;73921;-48
2023/07/11 10:11:12;;;;;;;0.60;0.40;;;;;;;20.84;100.00;99477.23;104830;1257;66327;-48
2023/07/11 10:13:42;;;;;;;0.30;0.30;;;;;;;20.83;100.00;99472.63;104962;1257;72475;-49
2023/07/11 10:16:17;;;;;;;0.60;0.30;;;;;;;20.89;100.00;99476.20;104924;1254;60667;-50
2023/07/11 10:18:45;;;;;;;0.70;0.20;;;;;;;20.98;100.00;99472.05;105565;1257;60451;-49
2023/07/11 10:21:20;;;;;;;0.30;0.30;;;;;;;21.07;100.00;99472.95;104825;1254;72573;-50
2023/07/11 10:23:58;;;;;;;1.70;0.30;;;;;;;21.14;100.00;99468.41;104851;1254;66898;-50
2023/07/11 10:26:26;;;;;;;0.30;0.30;;;;;;;21.18;100.00;99468.50;104943;1254;72727;-48
2023/07/11 10:29:07;;;;;;;0.60;0.30;;;;;;;21.14;100.00;99470.95;105011;1258;60668;-49
2023/07/11 10:31:52;;;;;;;0.30;0.30;;;;;;;21.13;100.00;99471.23;105074;1254;60370;-50
2023/07/11 10:34:25;;;;;;;0.20;0.20;;;;;;;21.17;100.00;99465.13;105627;1257;73865;-50
2023/07/11 10:37:02;;;;;;;1.10;0.30;;;;;;;21.25;100.00;99463.44;104994;1254;66022;-49
2023/07/11 10:39:33;;;;;;;2.70;0.30;;;;;;;21.36;100.00;99464.16;105154;1259;72641;-49
2023/07/11 10:42:06;;;;;;;1.70;0.30;;;;;;;21.44;100.00;99462.11;104862;1259;60629;-49
2023/07/11 10:44:37;;;;;;;0.30;0.30;;;;;;;21.54;100.00;99454.38;105749;1257;60316;-51
2023/07/11 10:47:04;;;;;;;0.30;0.30;;;;;;;21.60;100.00;99448.66;104827;1254;72767;-48
2023/07/11 10:49:38;;;;;;;0.30;0.30;;;;;;;21.64;100.00;99452.59;105860;1254;67668;-49
2023/07/11 10:52:11;;;;;;;1.70;0.30;;;;;;;21.70;100.00;99455.15;105123;1260;73708;-49
2023/07/11 10:54:48;;;;;;;0.20;0.20;;;;;;;21.72;100.00;99458.75;104943;1254;61177;-50
2023/07/11 10:57:34;;;;;;;0.30;0.30;;;;;;;21.77;100.00;99452.04;105010;1254;60537;-50
2023/07/11 11:00:22;;;;;;;0.50;0.30;;;;;;;21.86;100.00;99453.63;105011;1254;73780;-51
2023/07/11 11:03:26;;;;;;;0.40;0.40;;;;;;;21.96;100.00;99447.59;104869;1260;66817;-50
2023/07/11 11:06:00;;;;;;;;;;;;;;;22.04;100.00;99443.03;105226;1255;72426;-49
2023/07/11 11:09:00;;;;;;;0.20;0.20;;;;;;;22.05;100.00;99448.05;105144;1257;60684;-50
2023/07/11 11:11:37;;;;;;;0.50;0.50;;;;;;;21.91;100.00;99447.31;104969;1254;60379;-50
2023/07/11 11:14:10;;;;;;;0.30;0.30;;;;;;;21.81;100.00;99450.95;104892;1254;72618;-51
2023/07/11 11:16:54;;;;;;;0.30;0.30;;;;;;;21.78;100.00;99443.02;104863;1254;65632;-50
2023/07/11 11:19:33;;;;;;;0.30;0.30;;;;;;;21.81;100.00;99443.59;104955;1254;71822;-50
2023/07/11 11:22:17;;;;;;;0.20;0.20;;;;;;;21.89;100.00;99439.17;104697;1254;60772;-49
2023/07/11 11:25:04;;;;;;;0.30;0.30;;;;;;;22.01;100.00;99437.45;104961;1259;59355;-48
2023/07/11 11:27:53;;;;;;;0.70;0.30;;;;;;;22.09;100.00;99437.23;105003;1254;73835;-49
2023/07/11 11:30:48;;;;;;;0.60;0.40;;;;;;;22.13;100.00;99431.11;104875;1258;66826;-50
2023/07/11 11:33:16;;;;;;;0.40;0.30;;;;;;;22.18;100.00;99433.56;105049;1254;72472;-50
2023/07/11 11:36:09;;;;;;;0.60;0.40;;;;;;;22.22;100.00;99432.59;104854;1259;60407;-49